createdAt,value
2023-05-10T00:02:09.700Z,3.63
2023-05-10T00:04:36.682Z,3.45
2023-05-10T00:07:03.574Z,3.00
2023-05-10T00:09:30.812Z,3.38
2023-05-10T00:11:59.483Z,3.80
2023-05-10T00:14:26.516Z,3.53
2023-05-10T00:16:53.579Z,3.67
2023-05-10T00:19:20.790Z,3.47
2023-05-10T00:21:47.748Z,4.00
2023-05-10T00:24:14.673Z,3.80
2023-05-10T00:26:43.359Z,4.00
2023-05-10T00:29:10.413Z,4.20
2023-05-10T00:31:37.442Z,4.13
2023-05-10T00:34:04.552Z,4.25
2023-05-10T00:36:32.440Z,4.15
2023-05-10T00:38:59.859Z,4.18
2023-05-10T00:41:27.022Z,4.15
2023-05-10T00:43:55.023Z,4.32
2023-05-10T00:46:22.579Z,4.25
2023-05-10T00:48:49.667Z,4.10
2023-05-10T00:51:16.649Z,4.50
2023-05-10T00:53:44.995Z,4.15
2023-05-10T00:56:12.059Z,4.45
2023-05-10T00:58:39.452Z,4.20
2023-05-10T01:01:06.973Z,4.57
2023-05-10T01:03:34.051Z,4.43
2023-05-10T01:06:00.959Z,4.70
2023-05-10T01:08:28.213Z,4.30
2023-05-10T01:10:55.556Z,4.40
2023-05-10T01:13:51.386Z,4.50
2023-05-10T01:16:18.411Z,4.40
2023-05-10T01:18:45.496Z,4.88
2023-05-10T01:21:19.599Z,4.90
2023-05-10T01:24:01.945Z,4.68
2023-05-10T01:27:02.053Z,4.50
2023-05-10T01:30:22.078Z,4.43
2023-05-10T01:33:12.694Z,4.13
2023-05-10T01:35:48.515Z,4.40
2023-05-10T01:38:24.064Z,4.30
2023-05-10T01:40:53.839Z,4.30
2023-05-10T01:43:24.377Z,4.20
2023-05-10T01:45:59.956Z,4.03
2023-05-10T01:48:28.180Z,4.30
2023-05-10T01:50:55.165Z,4.40
2023-05-10T01:53:22.182Z,4.47
2023-05-10T01:55:52.088Z,4.65
2023-05-10T01:58:26.496Z,4.43
2023-05-10T02:00:53.664Z,4.25
2023-05-10T02:03:23.382Z,4.13
2023-05-10T02:05:50.480Z,4.40
2023-05-10T02:08:17.474Z,4.55
2023-05-10T02:10:44.500Z,4.75
2023-05-10T02:13:11.619Z,4.85
2023-05-10T02:15:38.659Z,4.63
2023-05-10T02:18:06.707Z,4.68
2023-05-10T02:20:33.830Z,4.30
2023-05-10T02:23:01.021Z,4.75
2023-05-10T02:25:27.981Z,4.70
2023-05-10T02:27:56.123Z,4.40
2023-05-10T02:30:23.703Z,4.72
2023-05-10T02:32:51.919Z,4.45
2023-05-10T02:35:18.952Z,4.57
2023-05-10T02:37:46.586Z,4.72
2023-05-10T02:40:13.828Z,4.38
2023-05-10T02:42:41.612Z,4.50
2023-05-10T02:45:16.727Z,4.70
2023-05-10T02:47:44.795Z,4.50
2023-05-10T02:50:11.992Z,4.80
2023-05-10T02:52:45.079Z,4.93
2023-05-10T02:55:13.822Z,4.70
2023-05-10T02:57:58.224Z,4.75
2023-05-10T03:00:26.216Z,4.75
2023-05-10T03:02:53.741Z,4.50
2023-05-10T03:05:21.277Z,4.40
2023-05-10T03:07:48.734Z,4.80
2023-05-10T03:10:16.069Z,5.63
2023-05-10T03:13:08.916Z,5.47
2023-05-10T03:15:57.463Z,5.03
2023-05-10T03:18:31.536Z,5.28
2023-05-10T03:21:10.029Z,5.82
2023-05-10T03:23:37.524Z,5.68
2023-05-10T03:26:04.505Z,5.43
2023-05-10T03:28:31.463Z,5.20
2023-05-10T03:30:58.927Z,5.25
2023-05-10T03:33:26.207Z,5.35
2023-05-10T03:35:53.872Z,5.05
2023-05-10T03:38:20.900Z,5.38
2023-05-10T03:40:48.068Z,5.18
2023-05-10T03:43:15.259Z,5.50
2023-05-10T03:45:42.734Z,5.93
2023-05-10T03:48:09.769Z,5.97
2023-05-10T03:50:36.695Z,5.68
2023-05-10T03:53:03.901Z,6.30
2023-05-10T03:55:31.129Z,6.05
2023-05-10T03:57:58.082Z,5.93
2023-05-10T04:00:25.399Z,6.13
2023-05-10T04:02:55.061Z,6.40
2023-05-10T04:05:22.263Z,6.72
2023-05-10T04:07:50.869Z,6.63
2023-05-10T04:10:18.092Z,6.85
2023-05-10T04:12:45.225Z,7.18
2023-05-10T04:15:12.262Z,6.80
2023-05-10T04:17:39.371Z,6.88
2023-05-10T04:20:07.176Z,6.75
2023-05-10T04:22:34.197Z,7.03
2023-05-10T04:25:01.084Z,7.30
2023-05-10T04:27:28.230Z,7.72
2023-05-10T04:29:55.253Z,7.68
2023-05-10T04:32:22.237Z,7.40
2023-05-10T04:34:49.196Z,7.32
2023-05-10T04:37:16.150Z,7.35
2023-05-10T04:39:43.162Z,7.80
2023-05-10T04:42:10.264Z,8.25
2023-05-10T04:44:37.450Z,8.68
2023-05-10T04:47:04.591Z,8.93
2023-05-10T04:49:31.514Z,9.27
2023-05-10T04:51:58.469Z,9.43
2023-05-10T04:54:25.518Z,9.27
2023-05-10T04:56:52.653Z,9.05
2023-05-10T04:59:19.764Z,9.50
2023-05-10T05:01:46.782Z,9.00
2023-05-10T05:04:13.713Z,8.85
2023-05-10T05:06:40.609Z,9.07
2023-05-10T05:09:07.706Z,9.15
2023-05-10T05:11:34.756Z,8.23
2023-05-10T05:14:01.831Z,9.00
2023-05-10T05:16:28.887Z,8.95
2023-05-10T05:18:56.921Z,8.25
2023-05-10T05:21:25.011Z,8.70
2023-05-10T05:23:52.051Z,8.98
2023-05-10T05:26:19.307Z,8.60
2023-05-10T05:28:46.513Z,8.63
2023-05-10T05:31:13.664Z,9.05
2023-05-10T05:33:40.653Z,8.73
2023-05-10T05:36:07.814Z,9.15
2023-05-10T05:38:34.722Z,9.15
2023-05-10T05:41:01.786Z,9.23
2023-05-10T05:43:28.851Z,8.70
2023-05-10T05:45:56.205Z,8.98
2023-05-10T05:48:23.331Z,8.73
2023-05-10T05:50:50.395Z,9.07
2023-05-10T05:53:17.716Z,8.80
2023-05-10T05:55:55.388Z,8.30
2023-05-10T05:58:23.543Z,7.55
2023-05-10T06:00:50.904Z,7.57
2023-05-10T06:03:18.059Z,7.80
2023-05-10T06:05:45.288Z,8.00
2023-05-10T06:08:12.312Z,7.72
2023-05-10T06:10:39.363Z,7.38
2023-05-10T06:13:06.484Z,8.77
2023-05-10T06:15:33.790Z,8.85
2023-05-10T06:18:00.860Z,7.57
2023-05-10T06:20:27.976Z,7.63
2023-05-10T06:22:55.069Z,8.40
2023-05-10T06:25:22.352Z,7.80
2023-05-10T06:27:53.373Z,8.02
2023-05-10T06:30:21.389Z,8.30
2023-05-10T06:32:48.464Z,7.70
2023-05-10T06:35:15.665Z,7.60
2023-05-10T06:37:42.735Z,6.82
2023-05-10T06:40:10.438Z,6.50
2023-05-10T06:42:37.439Z,6.10
2023-05-10T06:45:04.836Z,6.18
2023-05-10T06:47:31.765Z,6.60
2023-05-10T06:49:58.820Z,6.55
2023-05-10T06:52:25.786Z,5.70
2023-05-10T06:54:52.694Z,5.05
2023-05-10T06:57:31.341Z,5.13
2023-05-10T07:00:02.588Z,4.45
2023-05-10T07:02:29.853Z,4.20
2023-05-10T07:04:58.895Z,4.45
2023-05-10T07:07:27.237Z,4.55
2023-05-10T07:09:54.194Z,4.20
2023-05-10T07:12:21.291Z,4.55
2023-05-10T07:14:48.336Z,3.30
2023-05-10T07:17:15.533Z,3.53
2023-05-10T07:19:46.374Z,3.70
2023-05-10T07:22:13.998Z,4.13
2023-05-10T07:24:41.580Z,3.60
2023-05-10T07:27:08.550Z,3.95
2023-05-10T07:29:35.758Z,3.30
2023-05-10T07:32:02.816Z,3.17
2023-05-10T07:34:32.003Z,3.72
2023-05-10T07:37:06.630Z,3.50
2023-05-10T07:39:34.024Z,3.13
2023-05-10T07:42:00.983Z,3.20
2023-05-10T07:44:27.950Z,3.20
2023-05-10T07:46:54.956Z,3.30
2023-05-10T07:49:21.895Z,3.42
2023-05-10T07:51:48.926Z,3.38
2023-05-10T07:54:15.922Z,3.08
2023-05-10T07:56:46.709Z,3.35
2023-05-10T08:01:44.478Z,3.13
2023-05-10T08:04:11.645Z,3.30
2023-05-10T08:06:38.665Z,3.20
2023-05-10T08:09:05.909Z,3.05
2023-05-10T08:11:34.855Z,3.42
2023-05-10T08:14:01.987Z,2.95
2023-05-10T08:16:29.981Z,3.13
2023-05-10T08:18:57.189Z,3.38
2023-05-10T08:21:24.164Z,3.58
2023-05-10T08:23:51.288Z,3.17
2023-05-10T08:26:18.212Z,2.88
2023-05-10T08:28:45.159Z,3.22
2023-05-10T08:31:12.178Z,3.30
2023-05-10T08:33:39.159Z,3.28
2023-05-10T08:36:06.278Z,3.17
2023-05-10T08:38:33.366Z,3.60
2023-05-10T08:41:00.689Z,3.38
2023-05-10T08:43:29.256Z,3.42
2023-05-10T08:45:57.553Z,3.42
2023-05-10T08:48:25.595Z,3.33
2023-05-10T08:50:55.780Z,3.85
2023-05-10T08:53:23.567Z,3.70
2023-05-10T08:55:50.587Z,3.40
2023-05-10T08:58:17.554Z,3.50
2023-05-10T09:00:44.542Z,3.30
2023-05-10T09:03:11.619Z,3.50
2023-05-10T09:05:38.575Z,3.38
2023-05-10T09:08:06.436Z,3.13
2023-05-10T09:10:33.494Z,3.60
2023-05-10T09:13:00.432Z,3.63
2023-05-10T09:15:27.627Z,3.50
2023-05-10T09:17:54.617Z,3.50
2023-05-10T09:20:21.668Z,4.10
2023-05-10T09:22:48.759Z,4.50
2023-05-10T09:25:16.692Z,3.85
2023-05-10T09:27:47.626Z,4.00
2023-05-10T09:30:24.796Z,4.28
2023-05-10T09:32:52.130Z,3.75
2023-05-10T09:35:20.322Z,3.88
2023-05-10T09:37:51.136Z,3.72
2023-05-10T09:43:12.377Z,3.40
2023-05-10T09:45:39.421Z,3.60
2023-05-10T09:48:07.120Z,3.20
2023-05-10T09:50:35.248Z,3.80
2023-05-10T09:53:04.268Z,3.80
2023-05-10T09:55:41.227Z,3.60
2023-05-10T09:58:11.463Z,4.18
2023-05-10T10:00:43.284Z,3.80
2023-05-10T10:03:18.055Z,3.72
2023-05-10T10:05:45.688Z,3.50
2023-05-10T10:08:13.233Z,3.33
2023-05-10T10:10:41.495Z,3.55
2023-05-10T10:13:09.094Z,3.97
2023-05-10T10:15:36.181Z,4.00
2023-05-10T10:18:05.200Z,3.47
2023-05-10T10:20:32.419Z,4.53
2023-05-10T10:22:59.376Z,3.90
2023-05-10T10:25:26.547Z,3.97
2023-05-10T10:27:53.601Z,4.00
2023-05-10T10:30:23.299Z,4.07
2023-05-10T10:33:28.812Z,4.28
2023-05-10T10:35:56.159Z,3.78
2023-05-10T10:38:23.913Z,4.28
2023-05-10T10:41:02.581Z,4.75
2023-05-10T10:43:29.861Z,4.65
2023-05-10T10:46:16.464Z,4.75
2023-05-10T10:48:50.216Z,4.35
2023-05-10T10:51:17.606Z,4.10
2023-05-10T10:53:44.562Z,4.22
2023-05-10T10:56:12.933Z,4.68
2023-05-10T10:58:40.206Z,4.45
2023-05-10T11:01:25.574Z,3.97
2023-05-10T11:04:01.741Z,4.25
2023-05-10T11:06:35.726Z,4.65
2023-05-10T11:09:09.843Z,4.18
2023-05-10T11:11:37.370Z,4.25
2023-05-10T11:14:06.333Z,3.75
2023-05-10T11:16:44.069Z,3.42
2023-05-10T11:19:18.206Z,4.40
2023-05-10T11:22:11.405Z,4.13
2023-05-10T11:24:38.366Z,3.30
2023-05-10T11:27:05.404Z,3.53
2023-05-10T11:29:32.603Z,3.75
2023-05-10T11:32:00.141Z,3.35
2023-05-10T11:34:31.569Z,2.97
2023-05-10T11:36:58.803Z,3.08
2023-05-10T11:39:32.719Z,3.00
2023-05-10T11:41:59.726Z,2.60
2023-05-10T11:44:35.844Z,5.13
2023-05-10T11:47:02.908Z,5.43
2023-05-10T11:49:29.828Z,3.10
2023-05-10T11:52:07.662Z,2.75
2023-05-10T11:54:36.124Z,4.78
2023-05-10T11:57:03.181Z,4.65
2023-05-10T11:59:30.359Z,3.05
2023-05-10T12:01:57.279Z,4.20
2023-05-10T12:04:24.378Z,3.83
2023-05-10T12:06:51.562Z,3.10
2023-05-10T12:09:22.982Z,2.67
2023-05-10T12:11:58.858Z,3.45
2023-05-10T12:14:25.883Z,3.35
2023-05-10T12:16:53.612Z,3.17
2023-05-10T12:19:23.748Z,2.70
2023-05-10T12:21:50.806Z,2.72
2023-05-10T12:24:19.029Z,2.50
2023-05-10T12:27:07.827Z,2.80
2023-05-10T12:29:34.759Z,2.47
2023-05-10T12:32:01.970Z,2.13
2023-05-10T12:34:32.620Z,2.70
2023-05-10T12:36:59.811Z,2.47
2023-05-10T12:39:26.690Z,2.58
2023-05-10T12:41:53.811Z,2.25
2023-05-10T12:44:20.790Z,2.30
2023-05-10T12:46:47.951Z,2.35
2023-05-10T12:49:14.874Z,3.75
2023-05-10T12:51:41.793Z,3.35
2023-05-10T12:54:08.682Z,3.00
2023-05-10T12:56:35.575Z,2.85
2023-05-10T12:59:02.483Z,2.60
2023-05-10T13:01:29.688Z,3.13
2023-05-10T13:03:56.765Z,3.30
2023-05-10T13:06:23.713Z,3.10
2023-05-10T13:08:50.613Z,3.00
2023-05-10T13:11:18.077Z,3.00
2023-05-10T13:13:45.672Z,3.30
2023-05-10T13:16:12.615Z,3.30
2023-05-10T13:18:39.514Z,3.03
2023-05-10T13:21:06.780Z,3.38
2023-05-10T13:23:33.733Z,3.50
2023-05-10T13:26:00.751Z,2.80
2023-05-10T13:28:27.737Z,2.58
2023-05-10T13:30:54.682Z,2.05
2023-05-10T13:33:21.578Z,2.20
2023-05-10T13:35:48.552Z,3.05
2023-05-10T13:38:15.560Z,3.42
2023-05-10T13:40:42.495Z,3.03
2023-05-10T13:43:09.467Z,3.08
2023-05-10T13:45:36.748Z,3.08
2023-05-10T13:48:03.780Z,3.10
2023-05-10T13:50:31.148Z,3.00
2023-05-10T13:52:58.071Z,2.83
2023-05-10T13:55:25.041Z,2.33
2023-05-10T13:57:51.956Z,3.28
2023-05-10T14:00:19.234Z,3.17
2023-05-10T14:02:46.218Z,3.28
2023-05-10T14:05:13.992Z,3.38
2023-05-10T14:07:41.027Z,3.13
2023-05-10T14:10:08.278Z,3.63
2023-05-10T14:12:35.148Z,3.65
2023-05-10T14:15:02.270Z,2.90
2023-05-10T14:17:29.563Z,3.50
2023-05-10T14:19:56.487Z,3.33
2023-05-10T14:22:23.674Z,3.00
2023-05-10T14:24:51.202Z,3.40
2023-05-10T14:27:18.161Z,2.80
2023-05-10T14:29:45.125Z,2.90
2023-05-10T14:32:12.248Z,2.65
2023-05-10T14:34:39.165Z,3.35
2023-05-10T14:37:06.150Z,2.78
2023-05-10T14:39:34.163Z,2.38
2023-05-10T14:42:01.386Z,2.42
2023-05-10T14:44:28.736Z,2.22
2023-05-10T14:46:56.740Z,2.60
2023-05-10T14:49:25.719Z,2.10
2023-05-10T14:51:52.737Z,2.28
2023-05-10T14:54:20.518Z,2.60
2023-05-10T14:56:47.728Z,1.90
2023-05-10T14:59:14.631Z,1.63
2023-05-10T15:01:43.280Z,2.20
2023-05-10T15:04:10.863Z,2.20
2023-05-10T15:06:38.319Z,2.35
2023-05-10T15:09:05.285Z,1.88
2023-05-10T15:11:32.269Z,1.55
2023-05-10T15:13:59.495Z,2.00
2023-05-10T15:16:26.554Z,2.45
2023-05-10T15:18:53.642Z,2.72
2023-05-10T15:21:20.570Z,2.50
2023-05-10T15:23:47.459Z,2.40
2023-05-10T15:26:14.620Z,3.03
2023-05-10T15:28:41.897Z,2.53
2023-05-10T15:31:08.898Z,2.15
2023-05-10T15:33:37.054Z,2.38
2023-05-10T15:36:04.957Z,2.20
2023-05-10T15:38:32.890Z,2.30
2023-05-10T15:40:59.804Z,2.20
2023-05-10T15:43:26.828Z,1.98
2023-05-10T15:45:53.841Z,2.42
2023-05-10T15:48:21.068Z,2.20
2023-05-10T15:50:48.131Z,1.92
2023-05-10T15:53:15.173Z,2.30
2023-05-10T15:55:42.098Z,2.00
2023-05-10T15:58:09.075Z,2.00
2023-05-10T16:00:36.286Z,2.30
2023-05-10T16:03:03.459Z,2.25
2023-05-10T16:05:33.567Z,2.42
2023-05-10T16:08:01.809Z,2.40
2023-05-10T16:10:28.903Z,2.22
2023-05-10T16:12:56.248Z,2.05
2023-05-10T16:15:23.251Z,2.17
2023-05-10T16:17:50.448Z,2.15
2023-05-10T16:20:17.577Z,1.88
2023-05-10T16:22:44.553Z,1.80
2023-05-10T16:25:13.496Z,1.70
2023-05-10T16:27:41.059Z,1.90
2023-05-10T16:30:08.937Z,1.70
2023-05-10T16:32:35.945Z,1.85
2023-05-10T16:35:02.909Z,2.13
2023-05-10T16:37:29.930Z,2.00
2023-05-10T16:39:57.096Z,2.00
2023-05-10T16:42:25.253Z,2.03
2023-05-10T16:44:52.582Z,2.00
2023-05-10T16:47:19.618Z,1.90
2023-05-10T16:49:46.743Z,2.20
2023-05-10T16:52:14.319Z,2.05
2023-05-10T16:54:41.261Z,2.40
2023-05-10T16:57:08.693Z,2.25
2023-05-10T16:59:35.697Z,2.47
2023-05-10T17:02:02.740Z,2.70
2023-05-10T17:04:29.754Z,2.33
2023-05-10T17:06:57.052Z,2.47
2023-05-10T17:09:23.959Z,2.50
2023-05-10T17:11:51.114Z,2.22
2023-05-10T17:14:18.209Z,2.45
2023-05-10T17:16:45.268Z,2.35
2023-05-10T17:19:12.285Z,2.53
2023-05-10T17:21:39.237Z,2.63
2023-05-10T17:24:06.336Z,2.95
2023-05-10T17:26:34.601Z,2.63
2023-05-10T17:29:01.563Z,2.55
2023-05-10T17:31:29.952Z,2.80
2023-05-10T17:33:57.003Z,2.80
2023-05-10T17:36:24.380Z,2.40
2023-05-10T17:38:52.579Z,2.55
2023-05-10T17:41:20.457Z,2.80
2023-05-10T17:43:48.346Z,2.60
2023-05-10T17:46:16.217Z,2.90
2023-05-10T17:48:43.746Z,2.80
2023-05-10T17:51:13.968Z,2.53
2023-05-10T17:53:41.950Z,2.35
2023-05-10T17:56:09.797Z,2.40
2023-05-10T17:58:40.445Z,2.33
2023-05-10T18:01:07.878Z,2.30
2023-05-10T18:03:36.101Z,2.55
2023-05-10T18:06:04.650Z,2.13
2023-05-10T18:08:35.334Z,2.28
2023-05-10T18:11:02.919Z,2.15
2023-05-10T18:13:30.197Z,2.42
2023-05-10T18:15:58.144Z,2.50
2023-05-10T18:18:25.919Z,2.15
2023-05-10T18:21:00.547Z,2.90
2023-05-10T18:23:28.001Z,2.60
2023-05-10T18:25:55.256Z,2.80
2023-05-10T18:28:22.707Z,3.15
2023-05-10T18:30:51.456Z,2.85
2023-05-10T18:33:18.751Z,2.85
2023-05-10T18:35:45.826Z,2.88
2023-05-10T18:38:13.611Z,3.10
2023-05-10T18:40:42.248Z,2.95
2023-05-10T18:43:09.355Z,2.90
2023-05-10T18:45:36.551Z,2.80
2023-05-10T18:48:03.532Z,3.03
2023-05-10T18:50:30.587Z,3.10
2023-05-10T18:52:57.481Z,2.78
2023-05-10T18:55:25.874Z,3.05
2023-05-10T18:57:53.033Z,3.20
2023-05-10T19:00:20.574Z,2.95
2023-05-10T19:02:48.121Z,3.28
2023-05-10T19:05:15.998Z,3.28
2023-05-10T19:07:44.053Z,3.38
2023-05-10T19:10:13.050Z,3.47
2023-05-10T19:12:41.815Z,3.17
2023-05-10T19:15:09.486Z,2.85
2023-05-10T19:17:39.324Z,3.10
2023-05-10T19:20:08.070Z,2.88
2023-05-10T19:22:47.283Z,2.70
2023-05-10T19:25:22.785Z,2.90
2023-05-10T19:27:51.486Z,2.80
2023-05-10T19:30:18.666Z,2.75
2023-05-10T19:32:45.660Z,3.17
2023-05-10T19:35:13.217Z,2.47
2023-05-10T19:37:40.710Z,2.67
2023-05-10T19:40:08.616Z,2.80
2023-05-10T19:42:36.094Z,2.80
2023-05-10T19:45:03.395Z,2.90
2023-05-10T19:47:30.687Z,3.28
2023-05-10T19:49:58.834Z,3.10
2023-05-10T19:52:28.713Z,3.45
2023-05-10T19:54:55.872Z,3.50
2023-05-10T19:57:25.067Z,3.28
2023-05-10T19:59:52.212Z,3.10
2023-05-10T20:02:19.863Z,3.55
2023-05-10T20:04:47.054Z,3.38
2023-05-10T20:07:13.996Z,3.10
2023-05-10T20:09:42.871Z,3.50
2023-05-10T20:12:10.647Z,3.30
2023-05-10T20:14:37.739Z,3.70
2023-05-10T20:17:05.032Z,4.20
2023-05-10T20:19:32.305Z,3.97
2023-05-10T20:21:59.441Z,3.78
2023-05-10T20:24:26.718Z,3.10
2023-05-10T20:26:53.796Z,2.22
2023-05-10T20:29:20.879Z,1.75
2023-05-10T20:31:48.049Z,1.70
2023-05-10T20:34:15.076Z,2.00
2023-05-10T20:36:42.227Z,2.10
2023-05-10T20:39:09.770Z,1.88
2023-05-10T20:41:36.793Z,1.90
2023-05-10T20:44:05.578Z,2.00
2023-05-10T20:46:33.108Z,2.03
2023-05-10T20:49:00.434Z,1.77
2023-05-10T20:51:28.989Z,2.38
2023-05-10T20:53:57.216Z,2.15
2023-05-10T20:56:24.203Z,2.30
2023-05-10T20:58:51.224Z,2.70
2023-05-10T21:01:18.209Z,2.58
2023-05-10T21:03:45.355Z,2.67
2023-05-10T21:06:12.323Z,2.75
2023-05-10T21:08:39.245Z,2.60
2023-05-10T21:11:06.288Z,2.70
2023-05-10T21:13:33.376Z,2.60
2023-05-10T21:16:00.504Z,2.67
2023-05-10T21:18:27.582Z,2.83
2023-05-10T21:20:54.674Z,2.92
2023-05-10T21:23:21.802Z,2.70
2023-05-10T21:25:48.816Z,2.90
2023-05-10T21:28:15.957Z,3.70
2023-05-10T21:30:42.945Z,9.90
2023-05-10T21:33:09.889Z,13.40
2023-05-10T21:35:39.464Z,10.18
2023-05-10T21:38:06.620Z,9.43
2023-05-10T21:40:33.540Z,14.23
2023-05-10T21:43:00.674Z,12.75
2023-05-10T21:45:31.728Z,11.70
2023-05-10T21:48:01.982Z,13.45
2023-05-10T21:50:28.983Z,10.88
2023-05-10T21:52:56.676Z,9.30
2023-05-10T21:55:23.658Z,7.15
2023-05-10T21:57:50.968Z,7.15
2023-05-10T22:00:19.337Z,6.97
2023-05-10T22:02:47.050Z,7.95
2023-05-10T22:05:14.078Z,7.75
2023-05-10T22:07:41.062Z,6.05
2023-05-10T22:10:09.163Z,5.03
2023-05-10T22:12:36.699Z,5.07
2023-05-10T22:15:09.808Z,4.25
2023-05-10T22:17:39.616Z,3.80
2023-05-10T22:20:08.453Z,3.42
2023-05-10T22:22:36.649Z,4.00
2023-05-10T22:25:05.128Z,2.95
2023-05-10T22:27:32.308Z,3.08
2023-05-10T22:29:59.254Z,3.08
2023-05-10T22:32:26.177Z,3.22
2023-05-10T22:34:53.129Z,2.97
2023-05-10T22:37:20.137Z,3.13
2023-05-10T22:39:50.055Z,2.63
2023-05-10T22:42:17.256Z,2.83
2023-05-10T22:44:44.460Z,3.05
2023-05-10T22:47:11.617Z,2.70
2023-05-10T22:49:38.716Z,2.67
2023-05-10T22:52:05.622Z,2.88
2023-05-10T22:54:33.791Z,2.60
2023-05-10T22:57:02.597Z,2.60
2023-05-10T22:59:29.525Z,2.30
2023-05-10T23:01:56.509Z,2.63
2023-05-10T23:04:23.481Z,2.90
2023-05-10T23:06:50.473Z,2.47
2023-05-10T23:09:17.410Z,2.47
2023-05-10T23:11:44.337Z,2.90
2023-05-10T23:14:11.302Z,2.50
2023-05-10T23:16:38.308Z,2.67
2023-05-10T23:19:05.370Z,2.72
2023-05-10T23:21:32.738Z,2.40
2023-05-10T23:23:59.735Z,2.53
2023-05-10T23:26:26.945Z,2.50
2023-05-10T23:28:53.957Z,2.45
2023-05-10T23:31:21.607Z,2.17
2023-05-10T23:33:48.553Z,2.30
2023-05-10T23:36:15.535Z,2.38
2023-05-10T23:38:42.502Z,2.30
2023-05-10T23:41:09.483Z,2.30
2023-05-10T23:43:36.692Z,2.40
2023-05-10T23:46:05.371Z,2.13
2023-05-10T23:48:32.451Z,2.20
2023-05-10T23:50:59.440Z,2.40
2023-05-10T23:53:26.530Z,2.22
2023-05-10T23:55:53.689Z,2.35
2023-05-10T23:58:21.285Z,2.17
